Time;durP1;ratioP1;P1;durP2;ratioP2;P2;SDS_P1;SDS_P2;PMS_P1;PMS_P2;Temp;Humidity;BMP_temperature;BMP_pressure;BME280_temperature;BME280_humidity;BME280_pressure;Samples;Min_cycle;Max_cycle;Signal;HPM_P1;HPM_P2
2022/04/18 00:01:37;;;;;;;18.63;7.33;;;;;;;3.10;53.30;100559.75;4188758;28;20398;-67
2022/04/18 00:04:04;;;;;;;18.47;7.43;;;;;;;3.14;53.46;100558.63;4187998;28;20229;-67
2022/04/18 00:06:35;;;;;;;16.90;6.67;;;;;;;3.02;54.16;100556.72;4188191;28;20244;-69
2022/04/18 00:09:03;;;;;;;18.70;7.10;;;;;;;2.86;54.62;100568.19;4182461;28;20281;-68
2022/04/18 00:11:30;;;;;;;17.20;6.47;;;;;;;2.82;54.17;100561.44;4182770;28;20244;-68
2022/04/18 00:13:56;;;;;;;16.70;6.20;;;;;;;2.99;53.31;100552.50;4173694;28;20617;-66
2022/04/18 00:16:23;;;;;;;14.40;5.60;;;;;;;2.74;54.58;100559.25;4185105;28;22181;-67
2022/04/18 00:18:51;;;;;;;16.43;6.20;;;;;;;2.73;54.52;100552.31;4188858;28;21167;-65
2022/04/18 00:21:18;;;;;;;15.00;5.83;;;;;;;2.88;53.64;100555.81;4188629;28;20233;-67
2022/04/18 00:23:44;;;;;;;14.80;5.93;;;;;;;2.79;53.88;100547.66;4197589;28;20233;-67
2022/04/18 00:26:11;;;;;;;13.90;5.70;;;;;;;2.86;53.87;100551.59;4169443;28;20670;-66
2022/04/18 00:28:38;;;;;;;14.80;6.07;;;;;;;2.85;53.80;100550.72;4182411;28;20233;-67
2022/04/18 00:31:05;;;;;;;15.97;6.00;;;;;;;2.86;53.59;100551.59;4176713;28;20313;-67
2022/04/18 00:33:32;;;;;;;13.03;5.80;;;;;;;2.75;53.86;100545.19;4187579;28;20229;-66
2022/04/18 00:35:58;;;;;;;12.43;5.30;;;;;;;2.65;54.52;100543.22;4191795;28;21768;-67
2022/04/18 00:38:25;;;;;;;17.07;5.80;;;;;;;2.77;53.71;100541.63;4190661;28;20233;-67
2022/04/18 00:40:52;;;;;;;12.47;5.03;;;;;;;2.86;52.75;100541.91;4184774;28;21842;-69
2022/04/18 00:43:46;;;;;;;11.37;5.37;;;;;;;2.79;53.36;100537.97;4188070;28;23085;-67
2022/04/18 00:46:14;;;;;;;13.03;5.00;;;;;;;2.67;53.36;100534.31;4182646;28;20295;-67
2022/04/18 00:48:41;;;;;;;12.80;5.13;;;;;;;2.86;52.73;100544.53;4171493;28;22376;-67
2022/04/18 00:51:11;;;;;;;11.33;5.30;;;;;;;2.85;52.96;100539.38;4184372;28;20404;-67
2022/04/18 00:53:38;;;;;;;9.73;4.47;;;;;;;2.79;53.16;100531.88;4170190;28;20295;-67
2022/04/18 00:56:06;;;;;;;11.27;5.07;;;;;;;2.91;52.35;100531.13;4182275;28;20310;-68
2022/04/18 00:58:34;;;;;;;13.97;4.60;;;;;;;2.96;52.02;100532.53;4188642;28;20233;-67
2022/04/18 01:01:01;;;;;;;13.67;6.07;;;;;;;2.99;52.27;100531.47;4178823;28;20245;-67
2022/04/18 01:03:30;;;;;;;14.67;4.80;;;;;;;3.06;51.74;100522.28;4183346;28;20238;-67
2022/04/18 01:05:59;;;;;;;13.87;5.67;;;;;;;2.95;51.71;100520.34;4178581;28;20292;-67
2022/04/18 01:08:27;;;;;;;9.97;4.80;;;;;;;3.03;51.29;100522.47;4179975;28;21086;-66
2022/04/18 01:10:54;;;;;;;13.60;4.93;;;;;;;3.05;51.66;100520.59;4176929;28;21520;-65
2022/04/18 01:13:22;;;;;;;17.40;5.27;;;;;;;2.98;52.02;100524.56;4174666;28;20427;-66
2022/04/18 01:15:52;;;;;;;16.83;5.23;;;;;;;2.93;51.89;100524.81;4179055;28;23607;-66
2022/04/18 01:18:20;;;;;;;11.60;4.97;;;;;;;2.96;52.32;100521.16;4182962;28;20272;-67
2022/04/18 01:20:46;;;;;;;12.00;5.23;;;;;;;3.00;52.20;100516.56;4177079;28;20287;-68
2022/04/18 01:23:13;;;;;;;10.23;4.73;;;;;;;2.94;52.12;100510.72;4182161;28;20498;-65
2022/04/18 01:31:10;;;;;;;11.53;5.03;;;;;;;2.99;52.55;100509.63;4180975;28;20238;-67
2022/04/18 01:33:38;;;;;;;9.97;4.63;;;;;;;2.93;52.76;100506.44;4187566;28;20713;-67
2022/04/18 01:36:06;;;;;;;10.43;4.73;;;;;;;3.01;52.60;100503.31;4187313;28;20700;-67
2022/04/18 01:38:32;;;;;;;12.20;4.60;;;;;;;2.96;52.77;100503.59;4172599;28;20226;-67
2022/04/18 01:40:59;;;;;;;11.70;4.90;;;;;;;3.02;52.85;100502.41;4191219;28;20419;-67
2022/04/18 01:43:25;;;;;;;11.03;4.90;;;;;;;3.08;52.34;100504.63;4177359;28;20438;-68
2022/04/18 01:45:52;;;;;;;10.17;4.77;;;;;;;3.06;52.11;100500.41;4189669;28;20278;-68
2022/04/18 01:48:19;;;;;;;14.70;5.40;;;;;;;3.02;52.78;100497.16;4181677;28;20237;-68
2022/04/18 01:50:45;;;;;;;9.87;4.80;;;;;;;3.05;52.95;100501.38;4180604;28;20237;-69
2022/04/18 01:53:12;;;;;;;12.90;5.00;;;;;;;2.92;53.19;100499.47;4183689;28;20353;-67
2022/04/18 01:55:39;;;;;;;12.70;5.30;;;;;;;2.84;53.81;100500.91;4176141;28;20244;-67
2022/04/18 01:58:05;;;;;;;10.17;4.60;;;;;;;2.93;53.61;100493.28;4176300;28;20236;-67
2022/04/18 02:00:32;;;;;;;11.17;4.73;;;;;;;2.87;53.82;100483.16;4182067;28;20730;-67
2022/04/18 02:02:59;;;;;;;11.33;4.70;;;;;;;2.74;53.78;100484.84;4181725;28;20261;-68
2022/04/18 02:05:26;;;;;;;13.80;5.60;;;;;;;2.58;55.00;100484.09;4176877;28;20305;-68
2022/04/18 02:07:52;;;;;;;11.30;4.97;;;;;;;2.56;54.73;100481.56;4188161;28;20237;-69
2022/04/18 02:10:19;;;;;;;12.33;5.50;;;;;;;2.66;54.65;100472.16;4180326;28;20245;-67
2022/04/18 02:12:46;;;;;;;11.27;4.90;;;;;;;2.77;54.28;100471.53;4181646;28;20419;-69
2022/04/18 02:15:15;;;;;;;13.77;5.37;;;;;;;2.65;54.70;100474.91;4182287;28;21481;-68
2022/04/18 02:17:42;;;;;;;10.93;5.03;;;;;;;2.57;55.31;100466.63;4182680;28;20228;-68
2022/04/18 02:20:09;;;;;;;12.07;5.07;;;;;;;2.50;55.44;100474.88;4181606;28;20225;-68
2022/04/18 02:22:35;;;;;;;11.23;5.13;;;;;;;2.56;55.61;100467.59;4186376;28;23753;-69
2022/04/18 02:25:02;;;;;;;14.83;5.50;;;;;;;2.70;54.83;100468.41;4187706;28;22586;-68
2022/04/18 02:27:29;;;;;;;12.17;5.40;;;;;;;2.55;55.22;100461.47;4178043;28;20416;-67
2022/04/18 02:29:56;;;;;;;17.77;5.17;;;;;;;2.48;55.57;100458.38;4189469;28;20245;-67
2022/04/18 02:35:08;;;;;;;10.20;4.83;;;;;;;2.50;55.33;100451.22;4193304;28;22517;-68
2022/04/18 02:37:35;;;;;;;12.00;4.90;;;;;;;2.53;55.69;100456.31;4190326;28;20244;-68
2022/04/18 02:40:02;;;;;;;13.60;5.57;;;;;;;2.56;55.77;100457.06;4192313;28;22999;-66
2022/04/18 02:42:28;;;;;;;12.97;5.43;;;;;;;2.49;55.63;100460.06;4179508;28;22009;-65
2022/04/18 02:44:55;;;;;;;12.20;5.20;;;;;;;2.44;56.31;100462.13;4188062;28;20234;-68
2022/04/18 02:47:22;;;;;;;11.60;4.60;;;;;;;2.43;56.52;100459.56;4188146;28;20305;-66
2022/04/18 02:49:50;;;;;;;11.47;4.77;;;;;;;2.41;56.55;100457.06;4186881;28;20262;-67
2022/04/18 02:52:17;;;;;;;13.60;5.60;;;;;;;2.42;56.17;100464.00;4186015;28;20236;-68
2022/04/18 02:54:44;;;;;;;13.67;4.90;;;;;;;2.37;56.17;100455.56;4211673;28;21491;-66
2022/04/18 02:57:12;;;;;;;13.53;5.03;;;;;;;2.35;56.56;100456.59;4194108;28;20679;-66
2022/04/18 02:59:39;;;;;;;13.27;4.90;;;;;;;2.26;56.83;100453.56;4186192;28;20550;-67
2022/04/18 03:02:06;;;;;;;13.43;5.43;;;;;;;2.25;57.05;100456.28;4189230;28;21856;-66
2022/04/18 03:04:33;;;;;;;14.30;5.60;;;;;;;2.33;56.93;100461.91;4192496;28;21448;-68
2022/04/18 03:07:00;;;;;;;11.97;4.77;;;;;;;2.22;57.07;100453.84;4191092;28;20383;-66
2022/04/18 03:09:27;;;;;;;12.83;5.23;;;;;;;2.23;57.61;100458.16;4190401;28;20221;-67
2022/04/18 03:11:54;;;;;;;10.23;4.90;;;;;;;2.06;58.22;100451.25;4195664;28;25904;-65
2022/04/18 03:14:21;;;;;;;14.20;5.27;;;;;;;2.06;58.12;100452.13;4185256;28;20520;-67
2022/04/18 03:16:48;;;;;;;12.17;5.40;;;;;;;2.00;58.35;100447.22;4192300;28;21149;-69
2022/04/18 03:19:14;;;;;;;12.33;5.17;;;;;;;1.91;58.97;100450.38;4187464;28;20235;-66
2022/04/18 03:21:41;;;;;;;12.47;5.37;;;;;;;1.97;58.65;100452.66;4186060;28;20236;-67
2022/04/18 03:24:07;;;;;;;11.40;5.53;;;;;;;1.88;59.14;100446.16;4181215;28;20429;-66
2022/04/18 03:26:35;;;;;;;14.30;5.20;;;;;;;1.87;59.47;100452.34;4182245;28;20240;-66
2022/04/18 03:29:01;;;;;;;10.83;5.10;;;;;;;1.89;59.86;100449.63;4183688;28;21822;-67
2022/04/18 03:31:28;;;;;;;13.23;5.53;;;;;;;1.84;59.25;100446.44;4188304;28;23699;-66
2022/04/18 03:33:54;;;;;;;13.53;5.80;;;;;;;1.78;59.99;100452.03;4181025;28;20239;-67
2022/04/18 03:41:51;;;;;;;12.50;5.77;;;;;;;1.71;60.41;100445.44;4198697;28;20233;-67
2022/04/18 03:44:18;;;;;;;13.93;5.70;;;;;;;1.69;60.87;100449.00;4209017;28;20221;-66
2022/04/18 03:46:45;;;;;;;13.73;5.60;;;;;;;1.62;60.90;100452.06;4236798;28;20410;-68
2022/04/18 03:49:11;;;;;;;15.30;6.20;;;;;;;1.57;61.12;100444.47;4189380;28;23191;-67
2022/04/18 03:51:38;;;;;;;15.63;6.40;;;;;;;1.44;62.07;100446.94;4231489;28;20244;-67
2022/04/18 03:54:04;;;;;;;11.70;5.80;;;;;;;1.46;61.80;100446.84;4214345;28;20237;-67
2022/04/18 03:56:32;;;;;;;15.73;6.13;;;;;;;1.62;61.68;100441.59;4207266;28;20398;-66
2022/04/18 03:58:58;;;;;;;14.63;5.47;;;;;;;1.60;61.47;100444.28;4204081;28;20319;-66
2022/04/18 04:01:25;;;;;;;16.70;5.90;;;;;;;1.48;61.85;100440.59;4198151;28;20234;-66
2022/04/18 04:03:52;;;;;;;13.40;5.83;;;;;;;1.42;62.62;100446.16;4190829;28;20233;-67
2022/04/18 04:06:18;;;;;;;11.17;5.20;;;;;;;1.56;62.03;100448.00;4189850;28;21355;-66
2022/04/18 04:08:45;;;;;;;13.73;5.53;;;;;;;1.49;61.85;100451.91;4192226;28;20237;-66
2022/04/18 04:11:11;;;;;;;10.73;5.50;;;;;;;1.52;62.22;100445.66;4180201;28;22003;-67
2022/04/18 04:13:38;;;;;;;13.57;5.53;;;;;;;1.62;61.86;100445.03;4192891;28;25074;-66
2022/04/18 04:16:05;;;;;;;12.63;5.77;;;;;;;1.58;61.91;100443.53;4202268;28;20322;-67
2022/04/18 04:18:31;;;;;;;10.93;5.43;;;;;;;1.61;61.78;100453.84;4189060;28;22181;-67
2022/04/18 04:20:58;;;;;;;12.97;5.97;;;;;;;1.62;61.52;100447.66;4215330;28;21539;-67
2022/04/18 04:23:24;;;;;;;15.13;6.17;;;;;;;1.59;61.78;100452.22;4194313;28;22568;-65
2022/04/18 04:26:09;;;;;;;12.37;5.77;;;;;;;1.61;61.78;100455.63;4189501;28;20663;-66
2022/04/18 04:28:35;;;;;;;11.90;5.60;;;;;;;1.63;61.72;100457.22;4181930;28;20232;-68
2022/04/18 04:31:08;;;;;;;13.00;5.83;;;;;;;1.62;61.57;100458.16;4185971;28;20229;-69
2022/04/18 04:33:35;;;;;;;12.63;5.77;;;;;;;1.60;61.22;100457.41;4196385;28;20240;-67
2022/04/18 04:36:01;;;;;;;14.70;4.90;;;;;;;1.67;61.25;100456.13;4194198;28;20279;-68
2022/04/18 04:38:28;;;;;;;16.67;5.20;;;;;;;1.67;60.57;100455.28;4184471;28;20269;-67
2022/04/18 04:40:56;;;;;;;10.53;4.97;;;;;;;1.65;61.16;100454.50;4192414;28;23011;-66
2022/04/18 04:43:33;;;;;;;10.47;4.67;;;;;;;1.66;60.95;100459.69;4193218;28;20303;-69
2022/04/18 04:46:00;;;;;;;17.93;5.23;;;;;;;1.69;60.60;100466.53;4192944;28;20351;-67
2022/04/18 04:48:27;;;;;;;14.17;5.67;;;;;;;1.71;60.77;100461.19;4194158;28;21271;-69
2022/04/18 04:50:54;;;;;;;9.33;4.93;;;;;;;1.84;60.58;100462.16;4194401;28;20238;-67
2022/04/18 04:53:21;;;;;;;10.47;5.27;;;;;;;1.81;60.53;100471.06;4187859;28;20243;-67
2022/04/18 04:55:48;;;;;;;10.93;5.33;;;;;;;1.91;60.91;100468.75;4175061;28;20748;-67
2022/04/18 04:58:15;;;;;;;12.57;4.83;;;;;;;1.94;60.87;100463.31;4192630;28;20780;-67
2022/04/18 05:00:42;;;;;;;13.10;5.23;;;;;;;2.04;59.79;100469.75;4195093;28;20284;-67
2022/04/18 05:03:09;;;;;;;11.83;5.33;;;;;;;2.18;59.34;100475.94;4187599;28;20495;-68
2022/04/18 05:05:35;;;;;;;13.13;5.40;;;;;;;2.17;58.55;100463.75;4180431;28;22418;-66
2022/04/18 05:08:02;;;;;;;12.53;5.67;;;;;;;2.17;58.78;100463.75;4194412;28;22067;-67
2022/04/18 05:10:28;;;;;;;14.53;5.37;;;;;;;2.24;58.83;100465.09;4192170;28;20705;-67
2022/04/18 05:12:56;;;;;;;10.60;4.63;;;;;;;2.26;58.70;100468.47;4186900;28;20238;-67
2022/04/18 05:15:22;;;;;;;10.87;5.13;;;;;;;2.33;58.62;100467.16;4197210;28;20432;-69
2022/04/18 05:17:49;;;;;;;15.23;5.40;;;;;;;2.42;58.33;100477.13;4184077;28;20224;-67
2022/04/18 05:20:15;;;;;;;9.17;4.60;;;;;;;2.46;57.44;100470.75;4178474;28;20271;-67
2022/04/18 05:22:43;;;;;;;8.80;4.40;;;;;;;2.50;57.58;100477.50;4191372;28;20255;-65
2022/04/18 05:25:09;;;;;;;12.23;5.00;;;;;;;2.52;56.87;100467.75;4190112;28;22358;-67
2022/04/18 05:27:37;;;;;;;15.43;4.97;;;;;;;2.59;57.22;100481.34;4182361;28;20231;-68
2022/04/18 05:30:05;;;;;;;11.43;5.03;;;;;;;2.75;56.21;100476.84;4189095;28;20236;-68
2022/04/18 05:32:32;;;;;;;9.40;4.47;;;;;;;2.79;55.91;100471.44;4196588;28;21573;-67
2022/04/18 05:34:58;;;;;;;10.60;4.80;;;;;;;2.73;56.55;100472.63;4182823;28;21307;-67
2022/04/18 05:37:26;;;;;;;13.67;6.03;;;;;;;2.87;56.43;100470.00;4185193;28;25735;-68
2022/04/18 05:39:52;;;;;;;8.93;4.10;;;;;;;3.09;55.48;100476.53;4178992;28;20241;-68
2022/04/18 05:42:22;;;;;;;9.13;4.43;;;;;;;3.27;54.88;100472.75;4190299;28;22968;-68
2022/04/18 05:44:49;;;;;;;12.90;4.53;;;;;;;3.46;54.10;100476.84;4178749;28;21905;-69
2022/04/18 05:47:15;;;;;;;8.33;4.37;;;;;;;3.50;52.90;100471.31;4190790;28;20495;-69
2022/04/18 05:49:42;;;;;;;9.97;4.33;;;;;;;3.57;52.45;100469.97;4187761;28;20233;-68
2022/04/18 05:52:08;;;;;;;8.67;3.90;;;;;;;3.65;52.60;100466.81;4192834;28;21828;-69
2022/04/18 05:54:35;;;;;;;10.40;4.87;;;;;;;3.84;51.52;100474.38;4204512;28;20676;-68
2022/04/18 05:57:05;;;;;;;11.20;4.83;;;;;;;4.00;51.33;100475.06;4200882;28;20325;-71
2022/04/18 05:59:32;;;;;;;9.07;4.33;;;;;;;4.01;51.30;100473.25;4188704;28;23701;-68
2022/04/18 06:01:59;;;;;;;10.30;4.70;;;;;;;4.05;51.10;100479.16;4185096;28;20375;-69
2022/04/18 06:04:25;;;;;;;10.93;3.90;;;;;;;4.18;49.88;100474.75;4189136;28;20336;-70
2022/04/18 06:06:52;;;;;;;10.27;3.97;;;;;;;4.29;50.35;100472.25;4189167;28;20307;-69
2022/04/18 06:09:18;;;;;;;10.07;4.20;;;;;;;4.38;49.63;100471.63;4189483;28;20364;-74
2022/04/18 06:11:45;;;;;;;9.80;4.07;;;;;;;4.58;47.85;100477.31;4203082;28;20442;-70
2022/04/18 06:14:12;;;;;;;10.70;4.40;;;;;;;4.63;48.26;100476.03;4187737;28;20268;-69
2022/04/18 06:16:38;;;;;;;9.63;3.97;;;;;;;4.83;47.56;100471.19;4196130;28;20233;-69
2022/04/18 06:19:05;;;;;;;13.40;3.80;;;;;;;4.88;46.55;100478.78;4179616;28;20238;-69
2022/04/18 06:21:31;;;;;;;8.60;3.50;;;;;;;5.03;46.07;100473.28;4206540;28;20390;-71
2022/04/18 06:23:58;;;;;;;11.03;4.13;;;;;;;5.13;45.62;100472.59;4209024;28;20241;-71
2022/04/18 06:26:25;;;;;;;10.13;3.73;;;;;;;5.32;45.26;100473.00;4181869;28;20245;-70
2022/04/18 06:28:51;;;;;;;8.97;3.80;;;;;;;5.45;43.93;100473.78;4192450;28;21584;-68
2022/04/18 06:31:18;;;;;;;7.30;3.70;;;;;;;5.54;43.68;100471.44;4209013;28;20262;-69
2022/04/18 06:33:45;;;;;;;6.93;3.50;;;;;;;5.61;43.69;100484.06;4184422;28;20249;-69
2022/04/18 06:36:11;;;;;;;6.47;2.93;;;;;;;5.87;42.77;100482.16;4220672;28;21271;-68
2022/04/18 06:38:38;;;;;;;12.10;4.00;;;;;;;6.22;41.80;100488.44;4205305;28;21524;-68
2022/04/18 06:41:04;;;;;;;7.37;3.80;;;;;;;7.73;38.93;100493.38;4195633;28;20242;-68
2022/04/18 06:43:31;;;;;;;6.00;3.07;;;;;;;10.03;33.07;100500.06;4185546;28;20351;-68
2022/04/18 06:45:58;;;;;;;8.33;2.97;;;;;;;11.94;29.64;100512.19;4211710;28;20244;-69
2022/04/18 06:48:25;;;;;;;5.60;3.13;;;;;;;13.51;27.25;100525.59;4186004;28;20248;-68
2022/04/18 06:50:51;;;;;;;7.97;3.43;;;;;;;13.83;26.60;100519.47;4184459;28;20237;-67
2022/04/18 06:53:18;;;;;;;6.57;3.03;;;;;;;14.68;25.20;100531.75;4198856;28;20241;-69
2022/04/18 06:58:30;;;;;;;5.13;2.83;;;;;;;15.02;23.21;100536.88;4206871;28;20263;-69
2022/04/18 07:00:56;;;;;;;5.57;2.87;;;;;;;15.67;22.77;100535.81;4186669;28;20374;-69
2022/04/18 07:03:23;;;;;;;7.20;2.20;;;;;;;15.58;22.04;100526.94;4188600;28;26310;-69
2022/04/18 07:05:50;;;;;;;5.33;2.50;;;;;;;15.46;21.15;100539.09;4201769;28;20765;-72
2022/04/18 07:08:16;;;;;;;4.50;2.10;;;;;;;15.10;21.71;100528.84;4189507;28;20229;-70
2022/04/18 07:10:43;;;;;;;5.33;2.30;;;;;;;15.03;22.03;100533.22;4194805;28;20237;-70
2022/04/18 07:13:10;;;;;;;5.87;2.50;;;;;;;14.95;22.70;100533.22;4194443;28;20988;-68
2022/04/18 07:15:36;;;;;;;5.20;2.67;;;;;;;16.02;21.96;100536.31;4188153;28;20418;-69
2022/04/18 07:18:03;;;;;;;4.80;2.30;;;;;;;17.52;19.26;100544.47;4201896;28;20426;-70
2022/04/18 07:20:29;;;;;;;4.80;2.60;;;;;;;17.82;18.91;100541.75;4212911;28;20232;-68
2022/04/18 07:22:56;;;;;;;5.40;2.57;;;;;;;17.28;19.14;100532.16;4187555;28;21284;-67
2022/04/18 07:25:23;;;;;;;4.53;2.30;;;;;;;18.61;18.39;100532.75;4204827;28;20248;-66
2022/04/18 07:27:50;;;;;;;7.00;2.07;;;;;;;20.08;16.96;100537.88;4201064;28;20297;-67
2022/04/18 07:30:16;;;;;;;3.90;2.00;;;;;;;19.93;16.33;100538.06;4195103;28;20241;-68
2022/04/18 07:32:43;;;;;;;4.73;2.20;;;;;;;20.39;15.55;100531.06;4195965;28;20238;-69
2022/04/18 07:35:11;;;;;;;3.83;1.90;;;;;;;19.52;15.51;100533.53;4194073;28;20237;-70
2022/04/18 07:38:48;;;;;;;3.87;2.00;;;;;;;18.61;15.95;100530.03;4190665;28;20295;-68
2022/04/18 07:40:24;;;;;;;4.20;1.40;;;;;;;17.93;17.38;100525.06;4207954;28;20406;-71
2022/04/18 07:42:51;;;;;;;3.10;1.50;;;;;;;16.99;18.07;100523.03;4200232;28;20317;-71
2022/04/18 07:45:18;;;;;;;4.93;1.60;;;;;;;16.81;18.90;100515.34;4209630;28;24767;-69
2022/04/18 07:47:44;;;;;;;6.77;2.97;;;;;;;17.84;17.10;100512.75;4204565;28;21232;-68
2022/04/18 07:50:11;;;;;;;3.50;1.60;;;;;;;16.94;17.63;100511.19;4190341;28;20241;-72
2022/04/18 07:52:38;;;;;;;5.63;1.73;;;;;;;16.39;17.73;100513.22;4229490;28;20237;-68
2022/04/18 07:55:05;;;;;;;3.13;1.40;;;;;;;15.40;19.00;100507.59;4206030;28;20292;-69
2022/04/18 07:57:32;;;;;;;3.17;1.00;;;;;;;13.38;20.83;100496.63;4203224;28;20237;-68
2022/04/18 07:59:58;;;;;;;2.57;1.30;;;;;;;13.59;21.27;100490.00;4192101;28;20231;-68
2022/04/18 08:02:25;;;;;;;2.03;0.90;;;;;;;12.36;21.74;100476.00;4221521;28;21343;-68
2022/04/18 08:04:52;;;;;;;2.90;1.00;;;;;;;11.82;22.94;100479.53;4207789;28;20229;-69
2022/04/18 08:07:19;;;;;;;4.70;1.10;;;;;;;11.86;23.63;100474.72;4189214;28;20259;-71
2022/04/18 08:09:46;;;;;;;3.07;1.00;;;;;;;12.16;23.45;100480.69;4191620;28;21243;-68
2022/04/18 08:12:13;;;;;;;2.10;1.00;;;;;;;12.28;23.41;100478.63;4198133;28;20233;-67
2022/04/18 08:14:40;;;;;;;1.60;0.90;;;;;;;11.95;22.82;100478.34;4173142;28;20299;-70
2022/04/18 08:17:06;;;;;;;3.07;1.07;;;;;;;11.44;22.94;100466.47;4177710;28;21424;-69
2022/04/18 08:19:35;;;;;;;2.23;0.83;;;;;;;11.48;23.94;100465.19;4224167;28;20574;-69
2022/04/18 08:22:02;;;;;;;1.00;0.70;;;;;;;11.19;22.38;100476.81;4215835;28;20295;-69
2022/04/18 08:24:29;;;;;;;2.73;1.00;;;;;;;10.77;22.15;100458.69;4224711;28;20293;-70
2022/04/18 08:26:56;;;;;;;1.30;0.73;;;;;;;10.56;21.56;100465.03;4196399;28;20241;-69
2022/04/18 08:29:24;;;;;;;2.50;0.63;;;;;;;10.42;21.47;100478.78;4203298;28;20264;-71
2022/04/18 08:31:51;;;;;;;1.37;0.80;;;;;;;9.98;22.51;100465.09;4195702;28;20237;-69
2022/04/18 08:34:18;;;;;;;2.30;0.93;;;;;;;10.17;24.11;100455.41;4210889;28;20318;-71
2022/04/18 08:36:45;;;;;;;2.37;1.10;;;;;;;10.26;24.43;100457.22;4207344;28;20273;-70
2022/04/18 08:39:11;;;;;;;2.50;1.20;;;;;;;10.00;26.22;100449.84;4234341;28;20618;-68
2022/04/18 08:41:39;;;;;;;1.87;0.87;;;;;;;9.91;24.82;100448.03;4223234;28;23042;-70
2022/04/18 08:44:07;;;;;;;3.20;1.00;;;;;;;9.90;25.05;100448.97;4208361;28;21062;-71
2022/04/18 08:46:34;;;;;;;2.33;0.87;;;;;;;10.23;24.46;100437.09;4217172;28;20245;-68
2022/04/18 08:54:32;;;;;;;1.93;1.00;;;;;;;9.57;25.27;100429.81;4205863;28;21220;-71
2022/04/18 08:56:59;;;;;;;2.53;1.00;;;;;;;9.39;25.50;100426.16;4203918;28;20243;-72
2022/04/18 08:59:25;;;;;;;4.83;0.90;;;;;;;9.80;25.86;100432.22;4223394;28;22723;-68
2022/04/18 09:01:52;;;;;;;3.20;1.20;;;;;;;10.22;24.11;100431.91;4208275;28;20228;-71
2022/04/18 09:04:23;;;;;;;2.90;0.80;;;;;;;10.34;24.31;100431.59;4268325;28;21713;-70
2022/04/18 09:06:49;;;;;;;1.07;0.60;;;;;;;10.64;24.15;100415.56;4222496;28;21496;-67
2022/04/18 09:09:25;;;;;;;2.77;0.90;;;;;;;10.57;23.42;100410.81;4225026;28;20655;-69
2022/04/18 09:11:51;;;;;;;1.67;0.80;;;;;;;10.71;22.82;100406.00;4196743;28;20237;-70
2022/04/18 09:14:19;;;;;;;1.77;0.80;;;;;;;10.63;23.56;100395.25;4215102;28;25853;-70
2022/04/18 09:16:46;;;;;;;2.33;0.97;;;;;;;10.48;24.43;100401.06;4211420;28;20228;-69
2022/04/18 09:19:16;;;;;;;1.80;0.83;;;;;;;10.40;23.85;100390.31;4210677;28;21007;-70
2022/04/18 09:21:56;;;;;;;4.17;0.93;;;;;;;10.17;25.83;100403.06;4196994;28;20229;-69
2022/04/18 09:24:34;;;;;;;3.23;1.00;;;;;;;10.18;25.52;100395.94;4207985;28;20231;-69
2022/04/18 09:27:14;;;;;;;2.13;0.90;;;;;;;10.30;24.57;100394.81;4186418;28;20373;-69
2022/04/18 09:29:40;;;;;;;1.67;0.63;;;;;;;10.44;24.95;100391.69;4196425;28;20236;-70
2022/04/18 09:32:08;;;;;;;2.33;1.03;;;;;;;9.79;26.39;100385.38;4190393;28;23231;-68
2022/04/18 09:34:36;;;;;;;2.13;0.93;;;;;;;9.69;25.43;100380.91;4223862;28;20676;-71
2022/04/18 09:37:13;;;;;;;1.70;0.80;;;;;;;9.33;25.79;100384.22;4220148;28;20304;-70
2022/04/18 09:39:52;;;;;;;3.90;1.17;;;;;;;9.24;27.34;100376.09;4210753;28;20239;-71
2022/04/18 09:42:24;;;;;;;2.53;0.90;;;;;;;9.61;26.18;100361.31;4203283;28;23271;-69
2022/04/18 09:44:51;;;;;;;3.60;0.80;;;;;;;9.62;25.94;100358.53;4231260;28;20236;-71
2022/04/18 09:47:20;;;;;;;2.20;0.90;;;;;;;9.41;26.06;100356.00;4218774;28;20294;-72
2022/04/18 09:49:47;;;;;;;2.50;0.87;;;;;;;9.26;26.54;100352.06;4212471;28;20441;-70
2022/04/18 09:52:18;;;;;;;1.27;0.80;;;;;;;9.21;27.80;100363.13;4226374;28;23401;-70
2022/04/18 09:54:52;;;;;;;2.33;1.10;;;;;;;9.24;26.48;100348.72;4231236;28;20223;-70
2022/04/18 09:57:22;;;;;;;2.97;1.00;;;;;;;9.29;26.38;100346.47;4221235;28;23592;-72
2022/04/18 09:59:53;;;;;;;3.83;1.00;;;;;;;9.40;26.23;100343.69;4209328;28;20277;-67
2022/04/18 10:02:20;;;;;;;1.83;0.93;;;;;;;9.30;26.53;100341.03;4187041;28;20244;-71
2022/04/18 10:04:48;;;;;;;2.20;0.80;;;;;;;9.47;26.95;100333.34;4201130;28;21452;-71
2022/04/18 10:07:15;;;;;;;1.63;0.70;;;;;;;9.75;26.81;100325.50;4218110;28;23066;-74
2022/04/18 10:09:43;;;;;;;1.47;0.90;;;;;;;9.88;25.70;100318.03;4218223;28;20287;-70
2022/04/18 10:12:11;;;;;;;1.60;0.70;;;;;;;9.35;25.60;100323.84;4234437;28;20238;-66
2022/04/18 10:14:39;;;;;;;1.67;0.70;;;;;;;9.35;26.97;100318.53;4204934;28;21386;-69
2022/04/18 10:17:10;;;;;;;3.57;1.00;;;;;;;9.83;26.13;100317.63;4202429;28;22472;-68
2022/04/18 10:20:04;;;;;;;3.83;1.10;;;;;;;10.20;26.07;100317.69;4203159;28;23734;-67
2022/04/18 10:23:11;;;;;;;1.67;0.80;;;;;;;10.01;24.58;100321.25;4207387;28;22957;-68
2022/04/18 10:25:49;;;;;;;1.90;0.80;;;;;;;9.73;24.54;100307.03;4221464;28;20237;-69
2022/04/18 10:28:18;;;;;;;2.80;1.03;;;;;;;9.25;25.01;100313.25;4232278;28;20369;-66
2022/04/18 10:30:47;;;;;;;1.87;0.70;;;;;;;9.25;25.11;100308.75;4197202;28;20228;-70
2022/04/18 10:33:14;;;;;;;1.83;0.70;;;;;;;9.54;24.69;100299.09;4237321;28;20312;-68
2022/04/18 10:35:53;;;;;;;2.70;1.33;;;;;;;9.85;24.87;100278.47;4220352;28;21364;-71
2022/04/18 10:38:25;;;;;;;2.50;0.93;;;;;;;9.86;25.16;100296.13;4202747;28;21368;-68
2022/04/18 10:44:00;;;;;;;2.03;0.60;;;;;;;9.75;24.30;100281.16;4225820;28;20321;-69
2022/04/18 10:46:27;;;;;;;4.07;1.00;;;;;;;9.68;25.00;100288.03;4205840;28;25905;-67
2022/04/18 10:49:03;;;;;;;1.63;0.90;;;;;;;9.88;25.59;100278.19;4199075;28;22904;-67
2022/04/18 10:51:33;;;;;;;1.57;0.73;;;;;;;10.01;25.32;100273.38;4203245;28;20295;-71
2022/04/18 10:54:16;;;;;;;3.70;0.80;;;;;;;10.50;25.58;100276.69;4211598;28;20309;-68
2022/04/18 10:57:05;;;;;;;2.30;1.00;;;;;;;10.61;25.31;100277.50;4204762;28;20323;-69
2022/04/18 10:59:42;;;;;;;3.50;1.10;;;;;;;10.81;24.90;100271.03;4212101;28;20241;-68
2022/04/18 11:02:09;;;;;;;2.27;0.90;;;;;;;10.61;24.48;100286.31;4203528;28;20228;-71
2022/04/18 11:04:38;;;;;;;2.80;0.93;;;;;;;10.50;24.83;100278.53;4214761;28;20967;-67
2022/04/18 11:07:09;;;;;;;2.43;1.10;;;;;;;10.86;25.05;100263.44;4211356;28;20247;-70
2022/04/18 11:09:38;;;;;;;4.40;1.20;;;;;;;11.16;24.21;100261.41;4218970;28;20320;-68
2022/04/18 11:12:12;;;;;;;3.33;1.20;;;;;;;11.10;23.75;100260.19;4230521;28;20301;-69
2022/04/18 11:14:53;;;;;;;4.60;0.97;;;;;;;10.74;24.50;100267.31;4205076;28;20233;-69
2022/04/18 11:17:33;;;;;;;5.80;1.10;;;;;;;10.42;24.50;100265.97;4233514;28;20230;-69
2022/04/18 11:20:33;;;;;;;1.63;1.07;;;;;;;10.23;24.91;100266.03;4235566;28;22115;-64
2022/04/18 11:23:19;;;;;;;3.27;1.10;;;;;;;10.60;24.02;100270.50;4224843;28;22541;-69
2022/04/18 11:25:59;;;;;;;3.47;1.10;;;;;;;10.88;24.22;100266.78;4233362;28;20760;-67
2022/04/18 11:28:39;;;;;;;2.87;1.27;;;;;;;10.91;23.97;100249.69;4214810;28;20236;-69
2022/04/18 11:31:21;;;;;;;4.30;1.50;;;;;;;10.71;23.69;100257.81;4222693;28;21935;-69
2022/04/18 11:33:48;;;;;;;2.70;1.10;;;;;;;10.47;24.01;100252.22;4217757;28;21114;-66
2022/04/18 11:36:15;;;;;;;1.90;1.00;;;;;;;10.03;24.89;100255.47;4223522;28;20296;-69
2022/04/18 11:38:41;;;;;;;1.50;1.07;;;;;;;9.84;25.03;100229.81;4227341;28;20290;-71
2022/04/18 11:41:12;;;;;;;4.20;1.30;;;;;;;9.87;25.52;100231.34;4214271;28;20318;-71
2022/04/18 11:43:38;;;;;;;4.10;1.20;;;;;;;10.27;25.27;100224.84;4215670;28;20380;-67
2022/04/18 11:46:07;;;;;;;5.40;1.30;;;;;;;10.81;24.76;100214.31;4206881;28;20260;-70
2022/04/18 11:48:35;;;;;;;4.90;1.40;;;;;;;11.28;24.37;100214.88;4212929;28;20236;-67
2022/04/18 11:51:03;;;;;;;2.50;1.13;;;;;;;10.98;24.20;100221.47;4208834;28;20405;-70
2022/04/18 11:53:33;;;;;;;3.50;1.53;;;;;;;10.76;23.87;100209.44;4199909;28;20233;-70
2022/04/18 11:56:04;;;;;;;3.83;1.17;;;;;;;10.81;23.64;100206.34;4194601;28;20947;-68
2022/04/18 11:58:40;;;;;;;1.87;1.00;;;;;;;10.95;22.53;100197.81;4212743;28;20237;-66